Latest Weather Observations for Norseman Airport

IDW60801

Issued at 11:33 pm WST Saturday 25 June 2016 (issued every 30 minutes, with the page automatically refreshed every 10 minutes)

About weather observations | Map of weather stations | Latest weather observations for WA | Other Formats
Station Details ID: 012009 Name: NORSEMAN AERO Lat: -32.21 Lon: 121.75 Height: 262.5 m
Data from the previous 72 hours. | See also: Recent months at Norseman Airport
Date/Time
WST
Temp
°C
App
Temp
°C
Dew
Point
°C
Rel
Hum
%
Delta-T
°C
Wind Press
QNH
hPa
Press
MSL
hPa
Rain since
9am
mm
Dir  Spd
km/h
Gust
km/h
Spd
kts
Gust
kts
25/11:30pm 3.3 0.5 3.2 99 0.0 SSW 7 9 4 5 1022.2 1022.3 0.2
25/11:00pm 3.8 1.1 3.7 99 0.0 SSW 7 7 4 4 1022.0 1022.1 0.0
25/10:30pm 5.2 2.8 5.1 99 0.0 SSW 7 9 4 5 1022.2 1022.3 0.0
25/10:00pm 6.2 3.6 5.9 98 0.1 SSW 9 11 5 6 1021.8 1021.9 0.0
25/09:30pm 7.8 5.8 7.2 96 0.3 S 7 9 4 5 1021.7 1021.8 0.0
25/09:00pm 8.1 5.7 7.0 93 0.5 SW 9 11 5 6 1021.7 1021.8 0.0
25/08:30pm 9.1 6.6 8.0 93 0.5 SSW 11 15 6 8 1021.6 1021.7 0.0
25/08:00pm 9.2 6.6 7.6 90 0.8 SSW 11 15 6 8 1021.2 1021.3 0.0
25/07:30pm 10.1 6.8 8.0 87 1.0 SSW 15 22 8 12 1021.0 1021.1 0.0
25/07:00pm 10.4 6.4 8.3 87 1.0 SSW 19 26 10 14 1020.7 1020.8 0.0
25/06:30pm 10.7 7.1 8.5 86 1.1 SSW 17 26 9 14 1020.1 1020.2 0.0
25/06:00pm 11.2 7.9 7.9 80 1.6 S 15 20 8 11 1019.6 1019.7 0.0
25/05:30pm 12.4 8.6 7.5 72 2.4 SSW 17 26 9 14 1018.9 1019.0 0.0
25/05:00pm 12.7 7.3 7.8 72 2.4 SW 26 39 14 21 1018.3 1018.4 0.0
25/04:30pm 13.4 8.2 7.4 67 3.0 SW 24 39 13 21 1017.7 1017.8 0.0
25/04:00pm 14.3 9.8 7.1 62 3.6 SSW 20 32 11 17 1017.3 1017.4 0.0
25/03:30pm 14.7 9.1 7.3 61 3.7 SW 26 35 14 19 1016.7 1016.8 0.0
25/03:00pm 14.6 8.7 7.6 63 3.5 WSW 28 35 15 19 1016.5 1016.6 0.0
25/02:30pm 14.8 10.3 7.1 60 3.8 WSW 20 26 11 14 1016.3 1016.4 0.0
25/02:00pm 15.2 10.5 7.7 61 3.8 WSW 22 30 12 16 1016.2 1016.3 0.0
25/01:30pm 15.5 11.6 7.3 58 4.1 WSW 17 20 9 11 1016.3 1016.4 0.0
25/01:00pm 15.7 11.5 7.5 58 4.1 SW 19 24 10 13 1016.3 1016.4 0.0
25/12:30pm 15.6 12.3 6.6 55 4.5 WSW 13 22 7 12 1016.8 1016.9 0.0
25/12:00pm 15.0 12.1 6.6 57 4.1 W 11 20 6 11 1017.2 1017.3 0.0
25/11:30am 14.3 10.2 6.2 58 3.9 W 17 24 9 13 1017.7 1017.8 0.0
25/11:00am 14.0 9.5 5.9 58 3.9 WNW 19 24 10 13 1018.0 1018.1 0.0
25/10:30am 12.6 10.5 6.6 67 2.9 N 7 11 4 6 1018.5 1018.6 0.0
25/10:00am 11.0 8.8 6.0 71 2.4 N 7 9 4 5 1018.8 1018.9 0.0
25/09:30am 9.7 6.6 5.5 75 1.9 NNE 11 13 6 7 1018.7 1018.8 0.0
25/09:00am 8.1 4.9 5.0 81 1.4 NNE 11 13 6 7 1018.8 1018.9 0.0
25/08:30am 6.5 4.2 5.9 96 0.3 NNE 7 11 4 6 1018.8 1018.9 0.0
25/08:00am 4.4 2.0 4.3 99 0.0 ENE 6 7 3 4 1018.5 1018.6 0.0
25/07:30am 1.6 -1.5 1.5 99 0.0 ENE 7 9 4 5 1018.2 1018.3 0.0
25/07:00am 0.5 -2.8 0.4 99 0.0 ENE 7 9 4 5 1018.1 1018.2 0.0
25/06:30am 0.9 -2.3 0.8 99 0.0 NE 7 9 4 5 1018.0 1018.1 0.0
25/06:00am 1.3 -2.2 1.2 99 0.0 NE 9 11 5 6 1018.0 1018.1 0.0
25/05:30am 1.3 -2.2 1.2 99 0.0 NE 9 11 5 6 1017.8 1017.9 0.0
25/05:00am 0.7 -1.6 0.3 97 0.1 SW 2 6 1 3 1017.6 1017.7 0.0
25/04:30am 1.4 -0.4 1.0 97 0.2 CALM 0 0 0 0 1017.7 1017.8 0.0
25/04:00am 1.4 -0.5 0.7 95 0.3 CALM 0 0 0 0 1017.9 1018.0 0.0
25/03:30am 1.4 -1.8 0.5 94 0.3 ENE 7 7 4 4 1018.1 1018.2 0.0
25/03:00am 2.1 -1.1 0.9 92 0.5 NE 7 9 4 5 1018.2 1018.3 0.0
25/02:30am 2.8 -0.7 1.3 90 0.6 NE 9 9 5 5 1018.5 1018.6 0.0
25/02:00am 4.0 0.7 2.4 89 0.6 NNE 9 11 5 6 1018.6 1018.7 0.0
25/01:30am 4.4 1.2 2.8 89 0.7 NE 9 11 5 6 1018.6 1018.7 0.0
25/01:00am 4.8 0.9 3.6 92 0.5 NNE 13 15 7 8 1018.6 1018.7 0.0
25/12:30am 4.2 1.0 3.2 93 0.4 NE 9 11 5 6 1018.7 1018.8 0.0
25/12:00am 5.0 2.3 3.8 92 0.5 N 7 9 4 5 1018.7 1018.8 0.0
 
Date/Time
WST
Temp
°C
App
Temp
°C
Dew
Point
°C
Rel
Hum
%
Delta-T
°C
Wind Press
QNH
hPa
Press
MSL
hPa
Rain since
9am
mm
Dir  Spd
km/h
Gust
km/h
Spd
kts
Gust
kts
24/11:30pm 5.2 2.1 3.4 88 0.8 NNE 9 11 5 6 1019.0 1019.1 0.0
24/11:00pm 5.3 2.6 3.6 89 0.7 NE 7 9 4 5 1019.4 1019.5 0.0
24/10:30pm 5.0 2.2 3.0 87 0.8 NE 7 9 4 5 1019.5 1019.6 0.0
24/10:00pm 5.5 2.6 2.8 83 1.1 NE 7 9 4 5 1019.5 1019.6 0.0
24/09:30pm 7.3 4.3 4.1 80 1.4 NE 9 11 5 6 1019.4 1019.5 0.0
24/09:00pm 8.1 5.6 4.9 80 1.4 NNE 7 9 4 5 1019.6 1019.7 0.0
24/08:30pm 9.1 6.7 5.3 77 1.7 NE 7 11 4 6 1019.7 1019.8 0.0
24/08:00pm 9.7 7.0 5.5 75 1.9 N 9 11 5 6 1019.8 1019.9 0.0
24/07:30pm 10.0 7.3 5.4 73 2.1 NNW 9 13 5 7 1019.8 1019.9 0.0
24/07:00pm 10.0 7.2 5.2 72 2.2 NNE 9 13 5 7 1019.8 1019.9 0.0
24/06:30pm 10.1 6.1 5.1 71 2.3 NNE 15 19 8 10 1019.6 1019.7 0.0
24/06:00pm 10.6 6.7 5.2 69 2.5 N 15 20 8 11 1019.5 1019.6 0.0
24/05:30pm 10.5 7.1 5.7 72 2.2 N 13 17 7 9 1019.4 1019.5 0.0
24/05:00pm 10.8 7.3 5.6 70 2.4 N 13 17 7 9 1019.2 1019.2 0.0
24/04:30pm 11.3 6.9 4.7 64 3.0 NNW 17 20 9 11 1019.0 1019.1 0.0
24/04:00pm 11.5 7.2 5.2 65 2.9 N 17 20 9 11 1019.2 1019.2 0.0
24/03:30pm 11.7 6.4 4.9 63 3.2 N 22 26 12 14 1019.0 1019.1 0.0
24/03:00pm 11.9 6.6 4.9 62 3.2 N 22 28 12 15 1018.9 1019.0 0.0
24/02:30pm 12.3 7.6 5.0 61 3.4 N 19 24 10 13 1019.0 1019.1 0.0
24/02:00pm 12.0 7.3 5.2 63 3.2 N 19 26 10 14 1019.4 1019.5 0.0
24/01:30pm 11.9 7.2 5.1 63 3.2 N 19 24 10 13 1019.8 1019.9 0.0
24/01:00pm 11.9 7.0 5.1 63 3.2 N 20 26 11 14 1020.1 1020.2 0.0
24/12:30pm 11.6 6.9 5.0 64 3.1 N 19 26 10 14 1020.7 1020.8 0.0
24/12:00pm 11.5 8.0 7.2 75 2.1 N 15 20 8 11 1021.1 1021.2 0.0
24/11:30am 10.9 7.1 7.4 79 1.7 N 17 20 9 11 1021.8 1021.9 0.0
24/11:00am 10.3 6.6 8.1 86 1.1 N 17 20 9 11 1022.3 1022.4 0.0
24/10:30am 9.1 4.9 7.5 90 0.8 N 19 24 10 13 1022.7 1022.9 0.0
24/10:00am 8.4 5.2 8.3 99 0.0 N 15 19 8 10 1022.9 1023.1 0.0
24/09:30am 7.5 4.0 7.4 99 0.0 N 15 19 8 10 1023.2 1023.3 0.0
24/09:00am 5.7 3.4 5.7 100 0.0 NNE 7 9 4 5 1023.3 1023.4 1.0
24/08:30am 4.5 1.9 4.4 99 0.0 NNE 7 9 4 5 1023.0 1023.2 1.0
24/08:00am 2.5 0.9 2.4 99 0.0 CALM 0 0 0 0 1022.9 1023.1 1.0
24/07:30am -0.6 -2.7 -0.7 99 0.0 CALM 0 0 0 0 1022.6 1022.8 1.0
24/07:00am -1.0 -3.1 -1.1 99 0.0 CALM 0 0 0 0 1022.3 1022.4 1.0
24/06:30am -1.0 -3.1 -1.1 99 0.0 CALM 0 0 0 0 1021.9 1022.0 1.0
24/06:00am -0.9 -3.0 -1.0 99 0.0 CALM 0 0 0 0 1021.8 1021.9 1.0
24/05:30am -0.8 -2.9 -0.9 99 0.0 CALM 0 0 0 0 1021.6 1021.7 1.0
24/05:00am -1.1 -3.3 -1.2 99 0.0 CALM 0 0 0 0 1021.5 1021.6 1.0
24/04:30am -1.0 -3.1 -1.1 99 0.0 CALM 0 0 0 0 1021.7 1021.8 1.0
24/04:00am -0.8 -2.9 -0.9 99 0.0 CALM 0 0 0 0 1021.6 1021.7 1.0
24/03:30am -0.7 -2.8 -0.8 99 0.0 CALM 0 0 0 0 1021.7 1021.8 1.0
24/03:00am -0.4 -2.5 -0.5 99 0.0 CALM 0 0 0 0 1021.5 1021.6 1.0
24/02:30am -0.1 -2.1 -0.2 99 0.0 CALM 0 0 0 0 1021.7 1021.8 1.0
24/02:00am 0.2 -1.8 0.1 99 0.0 CALM 0 0 0 0 1021.7 1021.8 1.0
24/01:30am 0.5 -1.4 0.4 99 0.0 CALM 0 0 0 0 1022.0 1022.1 1.0
24/01:00am 0.8 -1.1 0.7 99 0.0 CALM 0 0 0 0 1021.9 1022.0 1.0
24/12:30am 1.2 -0.6 1.1 99 0.0 CALM 0 0 0 0 1022.0 1022.1 1.0
24/12:00am 1.6 -1.3 1.5 99 0.0 S 6 6 3 3 1022.0 1022.1 1.0
 
Date/Time
WST
Temp
°C
App
Temp
°C
Dew
Point
°C
Rel
Hum
%
Delta-T
°C
Wind Press
QNH
hPa
Press
MSL
hPa
Rain since
9am
mm
Dir  Spd
km/h
Gust
km/h
Spd
kts
Gust
kts
23/11:30pm 2.0 0.3 1.9 99 0.0 CALM 0 0 0 0 1021.9 1022.0 1.0
23/11:00pm 2.7 0.0 2.6 99 0.0 SSE 6 7 3 4 1021.9 1022.0 1.0
23/10:30pm 3.2 1.3 3.1 99 0.0 SSE 2 9 1 5 1021.9 1022.0 1.0
23/10:00pm 4.0 2.6 3.7 98 0.1 CALM 0 0 0 0 1021.7 1021.8 1.0
23/09:30pm 4.7 3.0 4.1 96 0.3 S 2 6 1 3 1021.6 1021.7 1.0
23/09:00pm 5.7 3.4 4.8 94 0.4 SSW 6 6 3 3 1021.5 1021.6 1.0
23/08:30pm 7.8 5.9 6.7 93 0.5 W 6 7 3 4 1021.3 1021.4 1.0
23/08:00pm 8.2 6.4 7.1 93 0.5 W 6 6 3 3 1021.3 1021.4 1.0
23/07:30pm 7.7 5.6 6.6 93 0.5 SSW 7 9 4 5 1021.2 1021.3 1.0
23/07:00pm 8.2 6.3 6.8 91 0.7 SSW 6 7 3 4 1021.0 1021.1 1.0
23/06:30pm 7.8 5.8 6.3 90 0.7 SSE 6 11 3 6 1020.6 1020.7 1.0
23/06:00pm 8.7 6.8 6.5 86 1.0 SSE 6 6 3 3 1020.1 1020.2 1.0
23/05:30pm 9.7 7.6 6.8 82 1.4 SSE 7 9 4 5 1019.9 1020.0 1.0
23/05:00pm 10.8 7.2 6.6 75 2.0 S 15 26 8 14 1019.5 1019.6 1.0
23/04:30pm 11.8 8.6 6.7 71 2.5 SW 13 17 7 9 1019.4 1019.5 1.0
23/04:00pm 12.1 8.9 6.8 70 2.6 WSW 13 20 7 11 1019.0 1019.1 1.0
23/03:30pm 12.8 10.3 6.4 65 3.1 W 9 13 5 7 1019.0 1019.1 1.0
23/03:00pm 11.7 8.6 7.2 74 2.2 WSW 13 24 7 13 1019.0 1019.1 1.0
23/02:30pm 11.3 6.7 6.6 73 2.3 SSW 20 30 11 16 1018.9 1019.0 1.0
23/02:00pm 12.7 8.3 7.6 71 2.5 SW 20 28 11 15 1018.7 1018.8 1.0
23/01:30pm 11.4 7.9 8.6 83 1.4 SSW 17 20 9 11 1018.7 1018.8 1.0
23/01:00pm 10.0 6.2 9.1 94 0.5 SSW 19 28 10 15 1018.7 1018.8 1.0
23/12:30pm 10.6 7.1 8.7 88 0.9 SSW 17 24 9 13 1018.7 1018.8 0.4
23/12:00pm 11.2 7.3 7.3 77 1.9 SW 17 32 9 17 1018.7 1018.8 0.0
23/11:30am 10.7 6.0 7.8 82 1.4 SSW 22 33 12 18 1018.9 1019.0 0.0
23/11:00am 10.9 5.6 7.0 77 1.9 SW 24 32 13 17 1019.0 1019.1 0.0
23/10:30am 11.1 5.4 6.6 74 2.2 SW 26 33 14 18 1019.3 1019.4 0.0
23/10:00am 11.2 5.4 6.3 72 2.3 SW 26 39 14 21 1019.2 1019.2 0.0
23/09:30am 10.6 4.4 6.2 74 2.1 SW 28 41 15 22 1018.9 1019.0 0.0
23/09:00am 10.7 5.5 7.2 79 1.7 SW 24 33 13 18 1018.4 1018.5 0.0
23/08:30am 9.8 5.8 8.1 89 0.8 WSW 19 28 10 15 1018.1 1018.2 0.0
23/08:00am 8.6 6.3 7.5 93 0.5 WSW 9 13 5 7 1017.6 1017.7 0.0
23/07:30am 8.3 5.1 6.9 91 0.7 WSW 13 19 7 10 1017.1 1017.2 0.0
23/07:00am 8.7 4.5 7.3 91 0.7 WSW 19 24 10 13 1016.8 1016.9 0.0
23/06:30am 8.8 5.4 7.6 92 0.6 WSW 15 20 8 11 1016.4 1016.5 0.0
23/06:00am 9.2 5.8 7.6 90 0.8 WSW 15 17 8 9 1016.2 1016.3 0.0
23/05:30am 9.3 5.9 7.7 90 0.8 WSW 15 20 8 11 1015.9 1015.9 0.0
23/05:00am 9.5 5.7 7.6 88 0.9 WSW 17 22 9 12 1015.6 1015.6 0.0
23/04:30am 9.9 5.8 7.7 86 1.1 WSW 19 28 10 15 1015.5 1015.5 0.0
23/04:00am 9.8 5.5 7.7 87 1.0 WSW 20 28 11 15 1015.3 1015.3 0.0
23/03:30am 9.9 4.9 8.0 88 0.9 WSW 24 32 13 17 1015.3 1015.3 0.0
23/03:00am 9.6 5.0 8.0 90 0.8 WSW 22 30 12 16 1015.2 1015.2 0.0
23/02:30am 9.3 5.1 8.2 93 0.5 WSW 20 26 11 14 1015.0 1015.1 0.0
23/02:00am 8.9 4.9 8.1 95 0.4 WSW 19 24 10 13 1015.0 1015.1 0.0
23/01:30am 7.9 4.4 7.1 95 0.4 WSW 15 19 8 10 1015.0 1015.1 0.0
23/01:00am 8.2 4.7 7.3 94 0.4 WSW 15 19 8 10 1014.8 1014.9 0.0
23/12:30am 8.6 4.4 7.4 92 0.6 W 19 22 10 12 1014.7 1014.8 0.0
23/12:00am 8.7 4.5 7.3 91 0.7 W 19 22 10 12 1014.9 1015.0 0.0

Other Formats:

Comma delimited format used in spreadsheet applications
http://www.bom.gov.au/fwo/IDW60801/IDW60801.95642.axf

JavaScript Object Notation format (JSON) in row-major order
http://www.bom.gov.au/fwo/IDW60801/IDW60801.95642.json